createdAt,value
2024-05-09T00:00:59.349Z,134.07
2024-05-09T00:01:59.425Z,131.80
2024-05-09T00:02:59.482Z,133.22
2024-05-09T00:03:59.528Z,132.41
2024-05-09T00:04:59.701Z,132.25
2024-05-09T00:05:59.717Z,135.18
2024-05-09T00:06:59.613Z,131.84
2024-05-09T00:07:59.725Z,132.48
2024-05-09T00:08:59.740Z,133.83
2024-05-09T00:09:59.831Z,133.36
2024-05-09T00:10:59.878Z,131.63
2024-05-09T00:12:00.146Z,134.89
2024-05-09T00:12:59.921Z,131.53
2024-05-09T00:14:00.039Z,133.93
2024-05-09T00:15:00.036Z,134.03
2024-05-09T00:16:00.060Z,131.85
2024-05-09T00:17:00.259Z,132.42
2024-05-09T00:18:00.584Z,133.10
2024-05-09T00:19:00.373Z,132.77
2024-05-09T00:20:00.372Z,134.63
2024-05-09T00:21:00.485Z,131.85
2024-05-09T00:22:00.384Z,135.29
2024-05-09T00:23:00.484Z,133.41
2024-05-09T00:24:00.493Z,133.70
2024-05-09T00:25:00.520Z,132.07
2024-05-09T00:26:00.678Z,135.36
2024-05-09T00:27:00.586Z,134.01
2024-05-09T00:28:00.743Z,135.79
2024-05-09T00:29:00.772Z,135.07
2024-05-09T00:30:00.699Z,134.00
2024-05-09T00:31:00.776Z,133.29
2024-05-09T00:32:00.885Z,134.48
2024-05-09T00:33:01.106Z,134.90
2024-05-09T00:34:01.095Z,133.62
2024-05-09T00:35:00.908Z,134.63
2024-05-09T00:36:00.943Z,133.39
2024-05-09T00:37:00.941Z,133.50
2024-05-09T00:38:01.447Z,135.62
2024-05-09T00:39:01.063Z,135.99
2024-05-09T00:40:01.144Z,137.14
2024-05-09T00:41:01.221Z,135.32
2024-05-09T00:42:01.183Z,136.60
2024-05-09T00:43:01.227Z,136.23
2024-05-09T00:44:01.305Z,134.74
2024-05-09T00:45:01.355Z,137.09
2024-05-09T00:46:01.351Z,136.72
2024-05-09T00:47:01.420Z,135.50
2024-05-09T00:48:01.753Z,133.90
2024-05-09T00:49:01.647Z,136.03
2024-05-09T00:50:01.669Z,137.24
2024-05-09T00:51:01.680Z,137.41
2024-05-09T00:52:01.671Z,136.54
2024-05-09T00:53:01.764Z,136.02
2024-05-09T00:54:01.780Z,137.66
2024-05-09T00:55:01.823Z,135.64
2024-05-09T00:56:01.942Z,136.23
2024-05-09T00:57:01.932Z,136.39
2024-05-09T00:58:01.967Z,137.71
2024-05-09T00:59:02.039Z,137.31
2024-05-09T01:00:02.018Z,138.67
2024-05-09T01:01:02.132Z,137.62
2024-05-09T01:02:02.189Z,136.61
2024-05-09T01:03:02.422Z,137.10
2024-05-09T01:04:02.284Z,137.54
2024-05-09T01:05:02.316Z,137.68
2024-05-09T01:06:02.328Z,136.64
2024-05-09T01:07:02.280Z,135.57
2024-05-09T01:08:02.512Z,136.74
2024-05-09T01:09:02.404Z,137.16
2024-05-09T01:10:02.495Z,138.07
2024-05-09T01:11:02.623Z,138.03
2024-05-09T01:12:02.687Z,136.68
2024-05-09T01:13:02.623Z,138.16
2024-05-09T01:14:02.615Z,138.59
2024-05-09T01:15:02.632Z,137.00
2024-05-09T01:16:02.690Z,137.61
2024-05-09T01:17:02.734Z,137.31
2024-05-09T01:18:02.839Z,137.42
2024-05-09T01:19:02.914Z,137.83
2024-05-09T01:20:05.738Z,135.87
2024-05-09T01:21:02.814Z,137.31
2024-05-09T01:22:02.832Z,137.78
2024-05-09T01:23:02.866Z,138.12
2024-05-09T01:24:02.782Z,138.18
2024-05-09T01:25:02.823Z,137.98
2024-05-09T01:26:02.894Z,139.13
2024-05-09T01:27:02.793Z,138.50
2024-05-09T01:28:02.790Z,137.53
2024-05-09T01:29:02.799Z,137.84
2024-05-09T01:30:04.090Z,137.68
2024-05-09T01:31:02.819Z,137.82
2024-05-09T01:32:02.920Z,138.02
2024-05-09T01:33:03.224Z,138.40
2024-05-09T01:34:02.951Z,138.25
2024-05-09T01:35:02.805Z,137.82
2024-05-09T01:36:02.885Z,140.28
2024-05-09T01:37:02.864Z,138.36
2024-05-09T01:38:02.881Z,138.52
2024-05-09T01:39:02.801Z,139.14
2024-05-09T01:40:03.547Z,137.22
2024-05-09T01:41:02.882Z,137.09
2024-05-09T01:42:02.840Z,139.21
2024-05-09T01:43:02.836Z,138.30
2024-05-09T01:44:02.889Z,139.11
2024-05-09T01:45:02.824Z,136.93
2024-05-09T01:46:02.834Z,137.54
2024-05-09T01:47:02.864Z,137.64
2024-05-09T01:48:03.468Z,140.07
2024-05-09T01:49:02.943Z,138.18
2024-05-09T01:50:03.540Z,138.23
2024-05-09T01:51:02.851Z,138.33
2024-05-09T01:52:02.836Z,137.89
2024-05-09T01:53:02.826Z,139.16
2024-05-09T01:54:02.851Z,137.67
2024-05-09T01:55:06.254Z,139.42
2024-05-09T01:56:02.885Z,139.51
2024-05-09T01:57:02.830Z,139.68
2024-05-09T01:58:02.834Z,140.00
2024-05-09T01:59:02.882Z,140.25
2024-05-09T02:00:03.675Z,140.89
2024-05-09T02:01:02.889Z,139.02
2024-05-09T02:02:03.119Z,139.18
2024-05-09T02:03:03.008Z,140.91
2024-05-09T02:04:03.253Z,139.77
2024-05-09T02:05:03.016Z,139.13
2024-05-09T02:06:03.097Z,140.02
2024-05-09T02:07:02.851Z,139.46
2024-05-09T02:08:02.904Z,139.69
2024-05-09T02:09:02.825Z,138.69
2024-05-09T02:10:06.453Z,138.16
2024-05-09T02:11:04.015Z,138.37
2024-05-09T02:12:02.960Z,138.82
2024-05-09T02:13:02.858Z,139.30
2024-05-09T02:14:02.911Z,139.91
2024-05-09T02:15:02.847Z,140.69
2024-05-09T02:16:02.857Z,139.98
2024-05-09T02:17:02.946Z,141.21
2024-05-09T02:18:02.957Z,141.94
2024-05-09T02:19:03.012Z,142.64
2024-05-09T02:20:02.963Z,140.00
2024-05-09T02:21:03.005Z,139.95
2024-05-09T02:22:02.899Z,141.21
2024-05-09T02:23:03.122Z,140.84
2024-05-09T02:24:02.948Z,140.36
2024-05-09T02:25:02.985Z,138.86
2024-05-09T02:26:03.010Z,141.26
2024-05-09T02:27:02.983Z,141.16
2024-05-09T02:28:03.109Z,140.46
2024-05-09T02:29:03.090Z,140.45
2024-05-09T02:30:04.685Z,141.53
2024-05-09T02:31:03.072Z,141.62
2024-05-09T02:32:03.199Z,141.58
2024-05-09T02:33:03.324Z,141.98
2024-05-09T02:34:03.519Z,142.06
2024-05-09T02:35:03.220Z,142.15
2024-05-09T02:36:03.126Z,141.61
2024-05-09T02:37:03.151Z,142.11
2024-05-09T02:38:03.291Z,140.54
2024-05-09T02:39:03.069Z,142.12
2024-05-09T02:40:03.487Z,141.16
2024-05-09T02:41:03.117Z,139.27
2024-05-09T02:42:03.097Z,140.89
2024-05-09T02:43:03.057Z,140.13
2024-05-09T02:44:03.127Z,140.80
2024-05-09T02:45:03.051Z,141.14
2024-05-09T02:46:03.090Z,140.25
2024-05-09T02:47:03.117Z,141.65
2024-05-09T02:48:03.473Z,141.33
2024-05-09T02:49:03.218Z,141.02
2024-05-09T02:50:04.630Z,140.41
2024-05-09T02:51:03.262Z,141.37
2024-05-09T02:52:03.085Z,141.43
2024-05-09T02:53:03.099Z,142.33
2024-05-09T02:54:03.072Z,140.64
2024-05-09T02:55:03.082Z,141.69
2024-05-09T02:56:03.158Z,141.32
2024-05-09T02:57:03.085Z,140.20
2024-05-09T02:58:03.117Z,140.64
2024-05-09T02:59:03.100Z,140.01
2024-05-09T03:00:03.679Z,140.71
2024-05-09T03:01:03.139Z,140.83
2024-05-09T03:02:03.184Z,140.75
2024-05-09T03:03:03.270Z,141.30
2024-05-09T03:04:03.237Z,141.12
2024-05-09T03:05:03.180Z,143.46
2024-05-09T03:06:03.134Z,142.20
2024-05-09T03:07:03.118Z,142.28
2024-05-09T03:08:03.140Z,141.38
2024-05-09T03:09:03.081Z,140.68
2024-05-09T03:10:03.451Z,142.30
2024-05-09T03:11:03.137Z,142.15
2024-05-09T03:12:03.402Z,141.92
2024-05-09T03:13:03.094Z,142.65
2024-05-09T03:14:03.139Z,142.25
2024-05-09T03:15:03.087Z,142.10
2024-05-09T03:16:03.126Z,141.68
2024-05-09T03:17:03.195Z,142.29
2024-05-09T03:18:03.476Z,141.43
2024-05-09T03:19:03.204Z,139.79
2024-05-09T03:20:05.028Z,141.09
2024-05-09T03:21:03.218Z,140.57
2024-05-09T03:22:03.130Z,141.23
2024-05-09T03:23:03.485Z,141.54
2024-05-09T03:24:03.135Z,141.70
2024-05-09T03:25:03.144Z,140.30
2024-05-09T03:26:03.215Z,141.62
2024-05-09T03:27:03.159Z,138.67
2024-05-09T03:28:03.101Z,139.53
2024-05-09T03:29:03.238Z,138.83
2024-05-09T03:30:05.469Z,139.53
2024-05-09T03:31:03.147Z,139.63
2024-05-09T03:32:03.187Z,139.76
2024-05-09T03:33:03.336Z,139.65
2024-05-09T03:34:03.234Z,141.22
2024-05-09T03:35:03.207Z,140.84
2024-05-09T03:36:03.112Z,140.73
2024-05-09T03:37:03.122Z,141.02
2024-05-09T03:38:03.225Z,139.03
2024-05-09T03:39:03.140Z,139.68
2024-05-09T03:40:03.148Z,140.77
2024-05-09T03:41:03.213Z,140.69
2024-05-09T03:42:03.163Z,141.73
2024-05-09T03:43:03.159Z,141.36
2024-05-09T03:44:03.222Z,141.24
2024-05-09T03:45:03.170Z,139.85
2024-05-09T03:46:03.184Z,140.98
2024-05-09T03:47:03.162Z,141.15
2024-05-09T03:48:03.250Z,140.54
2024-05-09T03:49:03.170Z,141.28
2024-05-09T03:50:04.506Z,140.20
2024-05-09T03:51:03.192Z,142.01
2024-05-09T03:52:03.173Z,142.11
2024-05-09T03:53:03.226Z,140.88
2024-05-09T03:54:03.184Z,140.20
2024-05-09T03:55:03.179Z,139.60
2024-05-09T03:56:03.210Z,140.44
2024-05-09T03:57:03.196Z,141.45
2024-05-09T03:58:03.200Z,141.06
2024-05-09T03:59:03.254Z,140.22
2024-05-09T04:00:05.566Z,140.21
2024-05-09T04:01:03.404Z,141.26
2024-05-09T04:02:03.382Z,140.41
2024-05-09T04:03:03.801Z,139.11
2024-05-09T04:04:03.368Z,138.48
2024-05-09T04:05:03.417Z,138.46
2024-05-09T04:06:03.352Z,138.78
2024-05-09T04:07:03.428Z,136.49
2024-05-09T04:08:03.487Z,136.22
2024-05-09T04:09:03.435Z,135.48
2024-05-09T04:10:05.260Z,133.24
2024-05-09T04:11:03.674Z,130.86
2024-05-09T04:12:03.664Z,130.08
2024-05-09T04:13:04.246Z,128.14
2024-05-09T04:14:03.673Z,127.69
2024-05-09T04:15:03.630Z,124.68
2024-05-09T04:16:03.687Z,122.53
2024-05-09T04:17:03.742Z,120.55
2024-05-09T04:18:04.081Z,119.86
2024-05-09T04:19:03.907Z,117.87
2024-05-09T04:20:05.116Z,114.66
2024-05-09T04:21:04.288Z,113.64
2024-05-09T04:22:04.083Z,110.02
2024-05-09T04:23:04.234Z,107.79
2024-05-09T04:24:04.208Z,105.52
2024-05-09T04:25:04.272Z,103.11
2024-05-09T04:26:04.413Z,100.93
2024-05-09T04:27:11.719Z,50.00
2024-05-09T04:28:11.701Z,50.00
2024-05-09T04:29:11.741Z,50.00
2024-05-09T04:30:18.955Z,50.00
2024-05-09T04:31:23.814Z,50.00
2024-05-09T04:32:23.992Z,50.00
2024-05-09T04:33:24.154Z,50.00
2024-05-09T04:34:23.926Z,50.00
2024-05-09T04:35:23.936Z,50.00
2024-05-09T04:36:23.844Z,50.83
2024-05-09T04:37:23.848Z,50.06
2024-05-09T04:38:23.907Z,50.09
2024-05-09T04:39:23.809Z,50.73
2024-05-09T04:40:31.226Z,51.04
2024-05-09T04:41:24.906Z,51.10
2024-05-09T04:42:23.838Z,50.74
2024-05-09T04:43:23.839Z,49.88
2024-05-09T04:44:23.950Z,47.03
2024-05-09T04:45:23.859Z,46.14
2024-05-09T04:46:23.889Z,51.55
2024-05-09T04:47:23.970Z,51.31
2024-05-09T04:48:23.990Z,51.99
2024-05-09T04:49:24.144Z,51.54
2024-05-09T04:50:33.205Z,51.85
2024-05-09T04:51:24.869Z,51.91
2024-05-09T04:52:23.869Z,52.02
2024-05-09T04:53:23.890Z,51.33
2024-05-09T04:54:33.664Z,50.42
2024-05-09T04:55:24.839Z,51.91
2024-05-09T04:56:23.969Z,52.25
2024-05-09T04:57:23.867Z,52.31
2024-05-09T04:58:23.868Z,51.91
2024-05-09T04:59:23.864Z,49.87
2024-05-09T05:00:31.999Z,52.13
2024-05-09T05:01:24.865Z,52.20
2024-05-09T05:02:23.951Z,52.11
2024-05-09T05:03:24.019Z,52.47
2024-05-09T05:04:23.968Z,51.56
2024-05-09T05:05:23.944Z,51.40
2024-05-09T05:06:23.894Z,51.68
2024-05-09T05:07:23.869Z,52.15
2024-05-09T05:08:23.877Z,53.16
2024-05-09T05:09:23.860Z,53.26
2024-05-09T05:10:32.988Z,52.99
2024-05-09T05:11:24.982Z,53.05
2024-05-09T05:12:23.965Z,53.33
2024-05-09T05:13:24.695Z,53.53
2024-05-09T05:14:24.059Z,52.70
2024-05-09T05:15:23.912Z,54.66
2024-05-09T05:16:23.913Z,53.80
2024-05-09T05:17:24.013Z,54.72
2024-05-09T05:18:23.956Z,53.81
2024-05-09T05:19:23.966Z,54.02
2024-05-09T05:20:31.024Z,55.33
2024-05-09T05:21:24.999Z,55.38
2024-05-09T05:22:23.857Z,55.36
2024-05-09T05:23:24.120Z,55.01
2024-05-09T05:24:23.914Z,54.93
2024-05-09T05:25:23.926Z,56.95
2024-05-09T05:26:23.927Z,55.11
2024-05-09T05:27:23.885Z,55.09
2024-05-09T05:28:23.999Z,53.97
2024-05-09T05:29:23.933Z,56.51
2024-05-09T05:30:29.079Z,54.32
2024-05-09T05:31:24.955Z,54.38
2024-05-09T05:32:24.080Z,54.56
2024-05-09T05:33:24.049Z,55.03
2024-05-09T05:34:23.933Z,55.62
2024-05-09T05:35:23.990Z,55.79
2024-05-09T05:36:23.893Z,55.72
2024-05-09T05:37:23.904Z,56.16
2024-05-09T05:38:27.335Z,56.15
2024-05-09T05:39:23.880Z,56.20
2024-05-09T05:40:32.731Z,56.45
2024-05-09T05:41:25.007Z,56.32
2024-05-09T05:42:23.888Z,56.61
2024-05-09T05:43:23.908Z,56.95
2024-05-09T05:44:24.097Z,58.05
2024-05-09T05:45:23.892Z,57.70
2024-05-09T05:46:23.916Z,58.78
2024-05-09T05:47:24.174Z,59.08
2024-05-09T05:48:24.079Z,58.29
2024-05-09T05:49:24.085Z,58.21
2024-05-09T05:50:31.877Z,58.01
2024-05-09T05:51:24.974Z,58.14
2024-05-09T05:52:23.893Z,58.47
2024-05-09T05:53:24.089Z,58.09
2024-05-09T05:54:23.905Z,58.97
2024-05-09T05:55:23.923Z,59.12
2024-05-09T05:56:23.903Z,58.54
2024-05-09T05:57:23.928Z,59.02
2024-05-09T05:58:23.911Z,58.51
2024-05-09T05:59:24.056Z,58.64
2024-05-09T06:01:23.974Z,58.17
2024-05-09T06:02:24.004Z,61.03
2024-05-09T06:03:24.015Z,59.02
2024-05-09T06:04:23.968Z,57.66
2024-05-09T06:05:25.978Z,58.59
2024-05-09T06:06:23.946Z,58.76
2024-05-09T06:07:23.989Z,58.78
2024-05-09T06:08:26.168Z,59.27
2024-05-09T06:09:23.912Z,58.73
2024-05-09T06:10:26.461Z,58.93
2024-05-09T06:11:25.069Z,58.79
2024-05-09T06:12:24.025Z,58.97
2024-05-09T06:13:23.914Z,59.85
2024-05-09T06:14:24.106Z,60.37
2024-05-09T06:15:23.962Z,60.25
2024-05-09T06:16:23.972Z,59.16
2024-05-09T06:17:24.158Z,58.88
2024-05-09T06:18:24.315Z,59.62
2024-05-09T06:19:24.249Z,58.34
2024-05-09T06:20:31.975Z,56.10
2024-05-09T06:21:25.050Z,56.21
2024-05-09T06:22:24.006Z,56.34
2024-05-09T06:23:24.026Z,56.12
2024-05-09T06:24:24.015Z,54.95
2024-05-09T06:25:24.129Z,54.27
2024-05-09T06:26:24.071Z,54.40
2024-05-09T06:27:24.041Z,53.03
2024-05-09T06:28:24.042Z,50.82
2024-05-09T06:29:24.174Z,51.13
2024-05-09T06:30:30.728Z,50.81
2024-05-09T06:31:25.074Z,50.92
2024-05-09T06:32:24.306Z,51.06
2024-05-09T06:33:24.339Z,51.12
2024-05-09T06:34:24.142Z,51.38
2024-05-09T06:35:24.055Z,52.03
2024-05-09T06:36:24.105Z,52.04
2024-05-09T06:37:24.069Z,51.48
2024-05-09T06:38:24.097Z,51.41
2024-05-09T06:39:24.068Z,51.30
2024-05-09T06:40:29.282Z,50.98
2024-05-09T06:41:25.126Z,51.02
2024-05-09T06:42:24.043Z,51.21
2024-05-09T06:43:24.047Z,50.04
2024-05-09T06:44:24.169Z,48.51
2024-05-09T06:45:24.080Z,48.40
2024-05-09T06:46:24.090Z,50.99
2024-05-09T06:47:24.307Z,51.07
2024-05-09T06:48:24.234Z,52.73
2024-05-09T06:49:24.426Z,52.27
2024-05-09T06:50:28.135Z,50.00
2024-05-09T06:51:25.279Z,50.11
2024-05-09T06:52:24.214Z,50.63
2024-05-09T06:53:24.391Z,50.25
2024-05-09T06:54:24.230Z,50.56
2024-05-09T06:55:24.228Z,50.77
2024-05-09T06:56:24.351Z,50.96
2024-05-09T06:57:24.249Z,52.31
2024-05-09T06:58:24.303Z,51.08
2024-05-09T06:59:24.303Z,52.98
2024-05-09T07:00:30.868Z,54.96
2024-05-09T07:01:25.374Z,54.98
2024-05-09T07:02:24.437Z,53.62
2024-05-09T07:03:24.486Z,55.21
2024-05-09T07:04:24.431Z,55.60
2024-05-09T07:05:24.567Z,52.36
2024-05-09T07:06:24.398Z,56.22
2024-05-09T07:07:24.355Z,55.49
2024-05-09T07:08:24.420Z,54.91
2024-05-09T07:09:24.377Z,55.67
2024-05-09T07:10:29.176Z,55.49
2024-05-09T07:11:25.489Z,55.58
2024-05-09T07:12:24.628Z,56.35
2024-05-09T07:13:24.365Z,56.00
2024-05-09T07:14:24.431Z,57.63
2024-05-09T07:15:24.366Z,58.37
2024-05-09T07:16:24.460Z,58.53
2024-05-09T07:17:24.546Z,57.37
2024-05-09T07:18:24.512Z,59.89
2024-05-09T07:19:24.569Z,58.10
2024-05-09T07:20:32.358Z,57.04
2024-05-09T07:21:25.462Z,57.20
2024-05-09T07:22:24.471Z,57.38
2024-05-09T07:23:24.507Z,57.76
2024-05-09T07:24:24.386Z,58.18
2024-05-09T07:25:24.397Z,58.54
2024-05-09T07:26:24.460Z,58.89
2024-05-09T07:27:24.381Z,58.53
2024-05-09T07:28:24.412Z,56.15
2024-05-09T07:29:24.458Z,58.84
2024-05-09T07:30:32.498Z,57.34
2024-05-09T07:31:25.366Z,57.45
2024-05-09T07:32:24.531Z,57.71
2024-05-09T07:33:24.880Z,57.43
2024-05-09T07:34:24.456Z,57.77
2024-05-09T07:35:24.460Z,57.38
2024-05-09T07:36:24.476Z,57.41
2024-05-09T07:37:24.422Z,56.74
2024-05-09T07:38:24.448Z,56.06
2024-05-09T07:39:24.400Z,57.62
2024-05-09T07:40:32.475Z,53.98
2024-05-09T07:41:25.475Z,54.17
2024-05-09T07:42:24.381Z,54.39
2024-05-09T07:43:24.422Z,54.96
2024-05-09T07:44:24.493Z,55.22
2024-05-09T07:45:43.001Z,57.40
2024-05-09T07:47:20.355Z,54.25
2024-05-09T07:48:56.917Z,54.26
2024-05-09T07:50:00.488Z,54.42
2024-05-09T07:54:24.690Z,54.63
2024-05-09T07:55:24.647Z,56.57
2024-05-09T07:56:25.662Z,58.78
2024-05-09T07:57:24.495Z,62.32
2024-05-09T07:58:24.461Z,63.96
2024-05-09T07:59:24.464Z,65.09
2024-05-09T08:00:30.995Z,62.16
2024-05-09T08:01:25.649Z,62.22
2024-05-09T08:02:24.604Z,62.47
2024-05-09T08:03:24.570Z,61.91
2024-05-09T08:04:26.555Z,62.12
2024-05-09T08:05:24.515Z,60.03
2024-05-09T08:06:24.501Z,59.93
2024-05-09T08:07:24.480Z,58.39
2024-05-09T08:08:24.564Z,58.42
2024-05-09T08:09:24.656Z,58.35
2024-05-09T08:10:28.428Z,58.98
2024-05-09T08:11:24.804Z,59.08
2024-05-09T08:12:24.669Z,59.03
2024-05-09T08:13:24.716Z,59.65
2024-05-09T08:14:24.726Z,58.23
2024-05-09T08:15:24.689Z,58.88
2024-05-09T08:16:24.768Z,57.90
2024-05-09T08:17:24.860Z,59.30
2024-05-09T08:18:24.838Z,58.35
2024-05-09T08:19:24.738Z,57.29
2024-05-09T08:20:31.026Z,59.32
2024-05-09T08:21:25.693Z,59.45
2024-05-09T08:22:24.684Z,59.39
2024-05-09T08:23:24.698Z,59.31
2024-05-09T08:24:24.676Z,59.77
2024-05-09T08:25:24.782Z,57.60
2024-05-09T08:26:24.677Z,59.65
2024-05-09T08:27:24.658Z,60.92
2024-05-09T08:28:24.711Z,58.58
2024-05-09T08:29:24.696Z,56.47
2024-05-09T08:30:32.546Z,58.08
2024-05-09T08:31:25.954Z,58.16
2024-05-09T08:32:24.818Z,58.37
2024-05-09T08:33:24.883Z,58.76
2024-05-09T08:34:24.862Z,58.70
2024-05-09T08:35:24.758Z,58.63
2024-05-09T08:36:24.771Z,58.62
2024-05-09T08:37:29.373Z,59.14
2024-05-09T08:38:25.763Z,59.25
2024-05-09T08:39:24.765Z,59.42
2024-05-09T08:40:31.080Z,60.00
2024-05-09T08:41:25.799Z,59.33
2024-05-09T08:42:24.825Z,59.87
2024-05-09T08:43:24.800Z,60.58
2024-05-09T08:44:24.859Z,61.30
2024-05-09T08:45:24.809Z,62.08
2024-05-09T08:46:24.841Z,59.37
2024-05-09T08:47:24.936Z,61.73
2024-05-09T08:48:24.925Z,59.06
2024-05-09T08:49:24.861Z,61.94
2024-05-09T08:50:32.293Z,59.02
2024-05-09T08:51:25.795Z,59.13
2024-05-09T08:52:24.783Z,59.22
2024-05-09T08:53:24.834Z,60.37
2024-05-09T08:54:24.798Z,61.06
2024-05-09T08:55:24.830Z,61.11
2024-05-09T08:56:24.814Z,62.78
2024-05-09T08:57:24.946Z,62.37
2024-05-09T08:58:24.847Z,61.54
2024-05-09T08:59:24.825Z,61.20
2024-05-09T09:00:33.828Z,62.92
2024-05-09T09:01:25.918Z,62.97
2024-05-09T09:02:24.981Z,63.09
2024-05-09T09:03:24.974Z,62.65
2024-05-09T09:04:24.964Z,63.67
2024-05-09T09:05:24.943Z,62.36
2024-05-09T09:06:24.822Z,62.60
2024-05-09T09:07:24.858Z,61.23
2024-05-09T09:08:24.850Z,64.79
2024-05-09T09:09:24.791Z,64.04
2024-05-09T09:10:31.059Z,62.29
2024-05-09T09:11:25.864Z,62.41
2024-05-09T09:12:24.881Z,62.38
2024-05-09T09:13:24.843Z,63.32
2024-05-09T09:14:24.818Z,64.07
2024-05-09T09:15:24.836Z,64.00
2024-05-09T09:16:24.898Z,64.19
2024-05-09T09:17:24.913Z,65.83
2024-05-09T09:18:24.942Z,64.25
2024-05-09T09:19:25.038Z,65.20
2024-05-09T09:20:29.554Z,64.23
2024-05-09T09:21:25.843Z,64.34
2024-05-09T09:22:24.809Z,64.77
2024-05-09T09:23:24.825Z,65.55
2024-05-09T09:24:24.834Z,66.33
2024-05-09T09:25:24.851Z,66.50
2024-05-09T09:26:24.854Z,66.93
2024-05-09T09:27:24.872Z,66.25
2024-05-09T09:28:24.826Z,66.31
2024-05-09T09:29:24.853Z,65.11
2024-05-09T09:30:34.645Z,66.94
2024-05-09T09:31:26.006Z,67.02
2024-05-09T09:32:24.949Z,67.00
2024-05-09T09:33:24.969Z,67.44
2024-05-09T09:34:24.977Z,67.40
2024-05-09T09:35:24.883Z,68.36
2024-05-09T09:36:24.860Z,67.60
2024-05-09T09:37:24.857Z,67.42
2024-05-09T09:38:24.877Z,66.86
2024-05-09T09:39:24.845Z,67.55
2024-05-09T09:40:31.330Z,66.93
2024-05-09T09:41:25.885Z,67.08
2024-05-09T09:42:24.878Z,67.08
2024-05-09T09:43:24.992Z,67.19
2024-05-09T09:44:24.889Z,68.53
2024-05-09T09:45:24.907Z,69.31
2024-05-09T09:46:25.017Z,69.36
2024-05-09T09:47:24.939Z,69.06
2024-05-09T09:48:24.960Z,69.87
2024-05-09T09:49:24.951Z,68.89
2024-05-09T09:50:31.848Z,72.13
2024-05-09T09:51:25.897Z,72.24
2024-05-09T09:52:24.910Z,72.35
2024-05-09T09:53:24.887Z,72.41
2024-05-09T09:54:24.909Z,71.73
2024-05-09T09:55:24.995Z,70.70
2024-05-09T09:56:24.908Z,71.91
2024-05-09T09:57:24.900Z,73.53
2024-05-09T09:58:25.097Z,72.07
2024-05-09T09:59:24.899Z,71.17
2024-05-09T10:00:30.570Z,73.85
2024-05-09T10:01:25.978Z,74.02
2024-05-09T10:02:25.028Z,74.78
2024-05-09T10:03:25.004Z,74.90
2024-05-09T10:04:24.976Z,74.67
2024-05-09T10:05:25.095Z,77.31
2024-05-09T10:06:24.932Z,75.63
2024-05-09T10:07:24.940Z,76.24
2024-05-09T10:08:24.951Z,76.57
2024-05-09T10:09:24.930Z,77.64
2024-05-09T10:11:24.960Z,78.87
2024-05-09T10:12:24.956Z,79.18
2024-05-09T10:13:25.054Z,78.31
2024-05-09T10:14:24.910Z,78.72
2024-05-09T10:15:24.919Z,78.15
2024-05-09T10:16:24.990Z,80.49
2024-05-09T10:17:25.039Z,79.10
2024-05-09T10:18:28.452Z,80.81
2024-05-09T10:19:26.025Z,80.89
2024-05-09T10:20:28.294Z,81.52
2024-05-09T10:21:25.976Z,81.08
2024-05-09T10:22:24.973Z,81.94
2024-05-09T10:23:24.945Z,82.57
2024-05-09T10:24:24.974Z,85.22
2024-05-09T10:25:25.041Z,87.38
2024-05-09T10:26:24.906Z,88.74
2024-05-09T10:27:24.915Z,86.08
2024-05-09T10:28:24.990Z,87.04
2024-05-09T10:29:24.933Z,89.54
2024-05-09T10:30:33.370Z,87.79
2024-05-09T10:31:25.966Z,87.94
2024-05-09T10:32:25.065Z,88.04
2024-05-09T10:33:25.002Z,89.67
2024-05-09T10:34:25.253Z,88.47
2024-05-09T10:35:24.977Z,90.80
2024-05-09T10:36:24.966Z,88.12
2024-05-09T10:37:24.976Z,89.86
2024-05-09T10:38:24.963Z,88.92
2024-05-09T10:39:24.989Z,88.36
2024-05-09T10:40:30.989Z,87.95
2024-05-09T10:41:25.960Z,88.09
2024-05-09T10:42:24.947Z,88.46
2024-05-09T10:43:25.039Z,89.09
2024-05-09T10:44:24.960Z,90.14
2024-05-09T10:45:24.970Z,90.43
2024-05-09T10:46:25.013Z,88.97
2024-05-09T10:47:25.104Z,88.79
2024-05-09T10:48:25.080Z,90.72
2024-05-09T10:49:25.037Z,89.60
2024-05-09T10:50:28.751Z,88.98
2024-05-09T10:51:25.951Z,89.09
2024-05-09T10:52:25.033Z,89.10
2024-05-09T10:53:24.963Z,89.41
2024-05-09T10:54:24.951Z,89.08
2024-05-09T10:55:25.031Z,90.43
2024-05-09T10:56:24.976Z,90.08
2024-05-09T10:57:25.000Z,89.85
2024-05-09T10:58:24.996Z,88.89
2024-05-09T10:59:25.015Z,88.54
2024-05-09T11:00:33.062Z,91.24
2024-05-09T11:01:26.134Z,91.29
2024-05-09T11:02:25.108Z,91.28
2024-05-09T11:03:25.067Z,88.83
2024-05-09T11:04:25.098Z,91.52
2024-05-09T11:05:25.102Z,89.74
2024-05-09T11:06:25.005Z,89.93
2024-05-09T11:07:25.153Z,87.50
2024-05-09T11:08:25.031Z,89.23
2024-05-09T11:09:25.017Z,89.83
2024-05-09T11:10:31.751Z,88.59
2024-05-09T11:11:26.032Z,88.66
2024-05-09T11:12:25.109Z,88.88
2024-05-09T11:13:25.007Z,89.19
2024-05-09T11:14:25.009Z,88.31
2024-05-09T11:15:25.002Z,89.16
2024-05-09T11:16:25.061Z,89.18
2024-05-09T11:17:25.125Z,87.78
2024-05-09T11:18:26.183Z,88.66
2024-05-09T11:19:25.141Z,90.23
2024-05-09T11:20:29.681Z,85.63
2024-05-09T11:21:26.025Z,85.79
2024-05-09T11:22:25.121Z,86.24
2024-05-09T11:23:25.022Z,87.22
2024-05-09T11:24:25.053Z,88.30
2024-05-09T11:25:25.118Z,89.07
2024-05-09T11:26:25.084Z,89.03
2024-05-09T11:27:25.025Z,88.62
2024-05-09T11:28:25.104Z,87.16
2024-05-09T11:29:25.038Z,88.07
2024-05-09T11:30:30.105Z,88.56
2024-05-09T11:31:26.151Z,88.68
2024-05-09T11:32:25.279Z,88.86
2024-05-09T11:33:25.097Z,89.04
2024-05-09T11:34:25.068Z,89.11
2024-05-09T11:35:25.030Z,90.85
2024-05-09T11:36:25.047Z,87.99
2024-05-09T11:37:25.148Z,89.33
2024-05-09T11:38:25.011Z,90.92
2024-05-09T11:39:25.119Z,87.83
2024-05-09T11:40:28.449Z,88.06
2024-05-09T11:41:26.042Z,88.19
2024-05-09T11:42:25.069Z,88.44
2024-05-09T11:43:25.112Z,89.36
2024-05-09T11:44:25.107Z,88.41
2024-05-09T11:45:25.051Z,88.94
2024-05-09T11:46:25.179Z,88.85
2024-05-09T11:47:25.200Z,87.61
2024-05-09T11:48:25.393Z,85.32
2024-05-09T11:49:26.845Z,87.01
2024-05-09T11:50:29.972Z,86.51
2024-05-09T11:51:26.062Z,86.68
2024-05-09T11:52:25.115Z,86.76
2024-05-09T11:53:25.059Z,87.07
2024-05-09T11:54:25.062Z,87.98
2024-05-09T11:55:28.003Z,88.52
2024-05-09T11:56:25.082Z,89.04
2024-05-09T11:57:25.046Z,88.14
2024-05-09T11:58:25.098Z,86.73
2024-05-09T11:59:25.118Z,88.63
2024-05-09T12:00:33.539Z,87.71
2024-05-09T12:01:27.933Z,87.83
2024-05-09T12:02:25.267Z,87.85
2024-05-09T12:03:25.170Z,87.78
2024-05-09T12:04:25.219Z,87.75
2024-05-09T12:05:25.159Z,86.99
2024-05-09T12:06:25.088Z,88.48
2024-05-09T12:07:25.168Z,86.21
2024-05-09T12:08:25.103Z,83.53
2024-05-09T12:09:25.090Z,85.94
2024-05-09T12:10:32.133Z,85.51
2024-05-09T12:11:26.163Z,85.69
2024-05-09T12:12:25.098Z,85.89
2024-05-09T12:13:25.119Z,86.22
2024-05-09T12:14:25.094Z,86.22
2024-05-09T12:15:25.072Z,88.74
2024-05-09T12:16:25.193Z,85.83
2024-05-09T12:17:25.283Z,86.31
2024-05-09T12:18:25.162Z,86.68
2024-05-09T12:19:25.138Z,83.16
2024-05-09T12:20:32.435Z,83.73
2024-05-09T12:21:26.128Z,83.89
2024-05-09T12:22:25.156Z,84.43
2024-05-09T12:23:25.145Z,84.78
2024-05-09T12:24:25.159Z,85.02
2024-05-09T12:25:25.197Z,87.63
2024-05-09T12:26:25.077Z,84.93
2024-05-09T12:27:25.082Z,85.83
2024-05-09T12:28:25.331Z,84.22
2024-05-09T12:29:25.107Z,85.85
2024-05-09T12:30:33.288Z,85.72
2024-05-09T12:31:26.286Z,85.87
2024-05-09T12:32:25.204Z,86.03
2024-05-09T12:33:25.236Z,86.98
2024-05-09T12:34:25.315Z,87.69
2024-05-09T12:35:25.148Z,88.25
2024-05-09T12:36:25.104Z,87.41
2024-05-09T12:37:25.146Z,90.04
2024-05-09T12:38:25.114Z,88.61
2024-05-09T12:39:25.130Z,88.47
2024-05-09T12:40:34.290Z,87.17
2024-05-09T12:41:26.163Z,87.30
2024-05-09T12:42:27.509Z,87.54
2024-05-09T12:43:25.224Z,87.35
2024-05-09T12:44:25.110Z,87.94
2024-05-09T12:45:25.103Z,88.27
2024-05-09T12:46:25.328Z,89.90
2024-05-09T12:47:25.237Z,90.06
2024-05-09T12:48:25.205Z,93.30
2024-05-09T12:49:25.399Z,92.90
2024-05-09T12:50:31.658Z,88.48
2024-05-09T12:51:26.177Z,88.67
2024-05-09T12:52:25.164Z,89.21